Time;durP1;ratioP1;P1;durP2;ratioP2;P2;SDS_P1;SDS_P2;PMS_P1;PMS_P2;Temp;Humidity;BMP_temperature;BMP_pressure;BME280_temperature;BME280_humidity;BME280_pressure;Samples;Min_cycle;Max_cycle;Signal;HPM_P1;HPM_P2
2022/12/21 00:00:18;;;;;;;167.98;23.88;;;8.40;99.90;;;;;;4996365;28;20514;-44
2022/12/21 00:02:44;;;;;;;142.05;20.90;;;8.30;99.90;;;;;;4999059;28;20439;-45
2022/12/21 00:05:10;;;;;;;92.30;17.05;;;8.30;99.90;;;;;;4995375;28;20088;-43
2022/12/21 00:07:36;;;;;;;177.40;21.75;;;8.30;99.90;;;;;;5004243;28;20052;-44
2022/12/21 00:10:02;;;;;;;201.13;23.52;;;8.40;99.90;;;;;;5005235;28;20582;-47
2022/12/21 00:12:28;;;;;;;328.52;31.00;;;8.30;99.90;;;;;;4996880;28;20041;-47
2022/12/21 00:14:54;;;;;;;259.98;28.20;;;8.30;99.90;;;;;;4996650;28;20041;-43
2022/12/21 00:17:19;;;;;;;372.35;32.38;;;8.30;99.90;;;;;;5001829;28;20073;-48
2022/12/21 00:19:45;;;;;;;401.13;37.83;;;8.30;99.90;;;;;;4984887;28;20081;-45
2022/12/21 00:22:11;;;;;;;287.70;28.95;;;8.30;99.90;;;;;;4991187;28;20278;-43
2022/12/21 00:24:37;;;;;;;420.52;35.60;;;8.30;99.90;;;;;;4997231;28;20121;-44
2022/12/21 00:27:03;;;;;;;370.88;35.90;;;8.20;99.90;;;;;;5010032;28;20034;-44
2022/12/21 00:29:29;;;;;;;307.50;30.67;;;8.20;99.90;;;;;;4999022;28;20383;-45
2022/12/21 00:31:55;;;;;;;350.52;34.70;;;8.20;99.90;;;;;;5006656;28;20538;-45
2022/12/21 00:34:21;;;;;;;345.08;33.53;;;8.20;99.90;;;;;;4993933;28;20141;-44
2022/12/21 00:36:48;;;;;;;201.75;20.95;;;8.20;99.90;;;;;;4998180;28;20044;-44
2022/12/21 00:39:15;;;;;;;332.55;28.65;;;8.20;99.90;;;;;;5001452;28;20042;-44
2022/12/21 00:41:41;;;;;;;398.17;39.97;;;8.20;99.90;;;;;;5001658;28;20060;-44
2022/12/21 00:44:08;;;;;;;336.55;31.60;;;8.10;99.90;;;;;;4993773;28;20042;-41
2022/12/21 00:46:34;;;;;;;288.80;25.98;;;8.10;99.90;;;;;;4995636;28;20038;-52
2022/12/21 00:49:04;;;;;;;276.13;25.35;;;8.00;99.90;;;;;;5001518;28;20137;-46
2022/12/21 00:51:32;;;;;;;344.67;30.95;;;8.00;99.90;;;;;;4985486;28;20084;-44
2022/12/21 00:53:58;;;;;;;304.08;27.60;;;7.90;99.90;;;;;;4980089;28;20388;-42
2022/12/21 00:56:25;;;;;;;338.67;33.28;;;7.90;99.90;;;;;;4986913;28;20038;-45
2022/12/21 00:58:52;;;;;;;229.80;25.38;;;7.80;99.90;;;;;;4994775;28;20096;-43
2022/12/21 01:01:20;;;;;;;242.35;21.15;;;7.80;99.90;;;;;;4997529;28;20500;-44
2022/12/21 01:03:46;;;;;;;168.27;16.90;;;7.80;99.90;;;;;;4981885;28;20034;-43
2022/12/21 01:06:23;;;;;;;212.25;22.55;;;7.70;99.90;;;;;;4996443;28;20049;-46
2022/12/21 01:08:49;;;;;;;243.35;24.63;;;7.70;99.90;;;;;;4998745;28;20080;-46
2022/12/21 01:11:17;;;;;;;166.55;18.50;;;7.60;99.90;;;;;;4998042;28;20038;-45
2022/12/21 01:13:43;;;;;;;152.40;17.27;;;7.50;99.90;;;;;;4997968;28;20081;-45
2022/12/21 01:16:19;;;;;;;126.22;14.07;;;7.50;99.90;;;;;;4999128;28;20030;-44
2022/12/21 01:18:45;;;;;;;142.70;16.30;;;7.40;99.90;;;;;;4991955;28;20045;-51
2022/12/21 01:21:16;;;;;;;159.48;18.10;;;7.30;99.90;;;;;;4995644;28;20113;-47
2022/12/21 01:23:42;;;;;;;151.48;15.00;;;7.30;99.90;;;;;;4994971;28;20034;-45
2022/12/21 01:26:08;;;;;;;101.55;11.40;;;7.20;99.90;;;;;;4993585;28;20045;-47
2022/12/21 01:28:34;;;;;;;235.48;21.42;;;7.20;99.90;;;;;;5008299;28;20536;-46
2022/12/21 01:31:01;;;;;;;129.05;15.30;;;7.20;99.90;;;;;;5003347;28;20046;-47
2022/12/21 01:33:28;;;;;;;180.35;18.55;;;7.20;99.90;;;;;;4994180;28;20038;-45
2022/12/21 01:35:53;;;;;;;180.02;21.55;;;7.20;99.90;;;;;;4991016;28;20065;-45
2022/12/21 01:38:19;;;;;;;79.70;11.45;;;7.20;99.90;;;;;;4997497;28;20046;-42
2022/12/21 01:40:45;;;;;;;88.97;11.82;;;7.20;99.90;;;;;;5007528;28;20580;-45
2022/12/21 01:43:45;;;;;;;152.45;15.65;;;7.20;99.90;;;;;;4993510;28;20125;-42
2022/12/21 01:46:22;;;;;;;158.35;18.77;;;7.20;99.90;;;;;;4994209;28;20054;-46
2022/12/21 01:48:54;;;;;;;307.40;27.83;;;7.20;99.90;;;;;;5003686;28;20200;-45
2022/12/21 01:51:21;;;;;;;121.88;14.15;;;7.20;99.90;;;;;;4994519;28;20088;-43
2022/12/21 01:54:01;;;;;;;165.35;15.38;;;7.20;99.90;;;;;;5002015;28;20500;-45
2022/12/21 01:56:36;;;;;;;108.13;14.10;;;7.10;99.90;;;;;;5003653;28;20034;-45
2022/12/21 01:59:09;;;;;;;109.03;14.25;;;7.10;99.90;;;;;;4998145;28;20042;-40
2022/12/21 02:01:36;;;;;;;112.70;13.68;;;7.20;99.90;;;;;;4999667;28;20487;-44
2022/12/21 02:04:02;;;;;;;82.25;12.32;;;7.10;99.90;;;;;;5001767;28;20053;-46
2022/12/21 02:06:45;;;;;;;117.35;15.35;;;7.20;99.90;;;;;;4999281;28;20038;-43
2022/12/21 02:09:13;;;;;;;101.10;12.80;;;7.20;99.90;;;;;;5001964;28;20041;-41
2022/12/21 02:11:39;;;;;;;91.55;13.30;;;7.20;99.90;;;;;;4998168;28;20041;-43
2022/12/21 02:14:11;;;;;;;94.20;12.68;;;7.20;99.90;;;;;;4996712;28;20088;-42
2022/12/21 02:16:44;;;;;;;51.70;10.68;;;7.10;99.90;;;;;;4992512;28;20057;-43
2022/12/21 02:19:31;;;;;;;110.10;13.38;;;7.10;99.90;;;;;;4994147;28;20053;-47
2022/12/21 02:22:09;;;;;;;125.63;13.65;;;7.10;99.90;;;;;;4999322;28;20038;-44
2022/12/21 02:24:50;;;;;;;98.57;11.88;;;7.10;99.90;;;;;;5005173;28;20428;-46
2022/12/21 02:27:35;;;;;;;74.68;12.02;;;7.10;99.90;;;;;;5000024;28;20066;-44
2022/12/21 02:30:05;;;;;;;136.18;14.60;;;7.10;99.90;;;;;;4986801;28;20422;-42
2022/12/21 02:32:50;;;;;;;165.82;16.13;;;7.10;99.90;;;;;;5008158;28;20061;-45
2022/12/21 02:35:35;;;;;;;102.32;13.00;;;7.10;99.90;;;;;;4995828;28;20081;-45
2022/12/21 02:38:18;;;;;;;102.97;11.23;;;7.10;99.90;;;;;;4999857;28;20429;-46
2022/12/21 02:41:02;;;;;;;107.35;12.93;;;7.10;99.90;;;;;;4996504;28;20503;-45
2022/12/21 02:46:33;;;;;;;132.80;14.05;;;7.00;99.90;;;;;;4996427;28;20059;-45
2022/12/21 02:49:05;;;;;;;151.77;17.38;;;7.00;99.90;;;;;;5008502;28;20503;-45
2022/12/21 02:51:38;;;;;;;84.63;11.68;;;7.00;99.90;;;;;;5002484;28;20133;-45
2022/12/21 02:54:04;;;;;;;96.57;11.68;;;7.00;99.90;;;;;;5000309;28;20040;-47
2022/12/21 02:56:30;;;;;;;152.85;15.23;;;6.90;99.90;;;;;;5001629;28;20042;-47
2022/12/21 02:58:56;;;;;;;90.78;9.82;;;6.90;99.90;;;;;;4997745;28;20044;-40
2022/12/21 03:01:48;;;;;;;140.85;13.07;;;6.80;99.90;;;;;;5007532;28;20049;-43
2022/12/21 03:04:32;;;;;;;76.45;8.30;;;6.80;99.90;;;;;;4996499;28;20574;-43
2022/12/21 03:07:14;;;;;;;88.30;11.73;;;6.70;99.90;;;;;;5001489;28;20037;-44
2022/12/21 03:10:00;;;;;;;124.80;14.43;;;6.60;99.90;;;;;;5003292;28;20073;-44
2022/12/21 03:12:47;;;;;;;78.80;9.65;;;6.60;99.90;;;;;;4998599;28;20042;-44
2022/12/21 03:15:33;;;;;;;99.38;10.32;;;6.60;99.90;;;;;;4996641;28;20038;-43
2022/12/21 03:18:19;;;;;;;74.18;10.55;;;6.50;99.90;;;;;;5006931;28;20052;-44
2022/12/21 03:21:10;;;;;;;67.55;8.68;;;6.50;99.90;;;;;;4998151;28;20552;-43
2022/12/21 03:23:41;;;;;;;76.18;9.02;;;6.40;99.90;;;;;;5001275;28;20415;-44
2022/12/21 03:26:36;;;;;;;108.15;9.23;;;6.30;99.90;;;;;;5004473;28;20081;-46
2022/12/21 03:29:04;;;;;;;79.22;8.98;;;6.40;99.90;;;;;;5001542;28;20046;-43
2022/12/21 03:31:35;;;;;;;50.85;6.45;;;6.30;99.90;;;;;;4997655;28;20045;-44
2022/12/21 03:34:17;;;;;;;53.58;9.10;;;6.30;99.90;;;;;;4991036;28;20049;-42
2022/12/21 03:36:48;;;;;;;41.38;8.13;;;6.30;99.90;;;;;;4989005;28;20038;-45
2022/12/21 03:39:20;;;;;;;62.53;8.73;;;6.30;99.90;;;;;;5004440;28;20038;-44
2022/12/21 03:41:50;;;;;;;45.67;7.03;;;6.20;99.90;;;;;;4997712;28;20038;-41
2022/12/21 03:44:21;;;;;;;46.25;8.15;;;6.20;99.90;;;;;;5003090;28;20048;-47
2022/12/21 03:46:55;;;;;;;69.35;9.95;;;6.20;99.90;;;;;;4993793;28;20056;-43
2022/12/21 03:49:33;;;;;;;91.25;12.57;;;6.20;99.90;;;;;;5001245;28;20112;-45
2022/12/21 03:52:04;;;;;;;60.40;9.60;;;6.20;99.90;;;;;;5002408;28;20030;-44
2022/12/21 03:54:43;;;;;;;50.80;9.18;;;6.20;99.90;;;;;;5002298;28;20059;-47
2022/12/21 03:57:10;;;;;;;52.10;7.90;;;6.20;99.90;;;;;;5002078;28;20482;-46
2022/12/21 03:59:40;;;;;;;84.30;12.02;;;6.20;99.90;;;;;;5000680;28;20099;-41
2022/12/21 04:02:20;;;;;;;75.22;10.85;;;6.30;99.90;;;;;;5002092;28;20573;-43
2022/12/21 04:04:53;;;;;;;42.10;8.27;;;6.30;99.90;;;;;;4995358;28;20038;-44
2022/12/21 04:07:24;;;;;;;34.08;6.22;;;6.30;99.90;;;;;;5000820;28;20124;-44
2022/12/21 04:10:02;;;;;;;58.38;8.85;;;6.30;99.90;;;;;;4999558;28;20084;-46
2022/12/21 04:12:37;;;;;;;28.25;7.03;;;6.40;99.90;;;;;;4989670;28;20038;-43
2022/12/21 04:15:17;;;;;;;103.45;13.73;;;6.40;99.90;;;;;;5000494;28;20038;-41
2022/12/21 04:17:45;;;;;;;79.13;9.90;;;6.40;99.90;;;;;;4995055;28;20619;-44
2022/12/21 04:20:17;;;;;;;70.13;9.10;;;6.30;99.90;;;;;;4996321;28;20076;-45
2022/12/21 04:28:20;;;;;;;84.43;9.55;;;6.30;99.90;;;;;;5004325;28;20077;-45
2022/12/21 04:30:46;;;;;;;119.07;13.02;;;6.30;99.90;;;;;;4992988;28;20042;-45
2022/12/21 04:33:14;;;;;;;108.22;13.75;;;6.20;99.90;;;;;;5000020;28;20034;-40
2022/12/21 04:37:30;;;;;;;80.05;10.88;;;6.20;99.90;;;;;;5000260;28;20121;-46
2022/12/21 04:38:28;;;;;;;39.28;9.23;;;6.30;99.90;;;;;;4979558;28;20585;-43
2022/12/21 04:40:54;;;;;;;96.80;11.05;;;6.30;99.90;;;;;;4996378;28;20077;-42
2022/12/21 04:43:20;;;;;;;109.22;12.85;;;6.30;99.90;;;;;;5008548;28;20120;-44
2022/12/21 04:45:46;;;;;;;113.18;14.75;;;6.40;99.90;;;;;;4994494;28;20049;-42
2022/12/21 04:48:12;;;;;;;68.45;10.23;;;6.40;99.90;;;;;;4992108;28;20051;-46
2022/12/21 04:50:41;;;;;;;84.18;11.50;;;6.40;99.90;;;;;;5000552;28;20104;-46
2022/12/21 04:53:08;;;;;;;70.00;10.70;;;6.50;99.90;;;;;;5000365;28;20085;-46
2022/12/21 04:55:33;;;;;;;56.22;9.48;;;6.50;99.90;;;;;;4998308;28;20039;-50
2022/12/21 04:57:59;;;;;;;24.75;8.90;;;6.50;99.90;;;;;;5004881;28;20038;-48
2022/12/21 05:00:25;;;;;;;22.10;8.50;;;6.50;99.90;;;;;;4999564;28;20056;-45
2022/12/21 05:02:50;;;;;;;69.68;11.95;;;6.50;99.90;;;;;;5003697;28;20038;-43
2022/12/21 05:05:16;;;;;;;47.35;9.52;;;6.60;99.90;;;;;;5000034;28;20046;-43
2022/12/21 05:07:42;;;;;;;67.95;11.63;;;6.60;99.90;;;;;;5002725;28;20455;-45
2022/12/21 05:10:08;;;;;;;29.40;7.80;;;6.60;99.90;;;;;;5002047;28;20042;-46
2022/12/21 05:12:34;;;;;;;37.28;9.07;;;6.60;99.90;;;;;;5001485;28;20373;-43
2022/12/21 05:15:00;;;;;;;46.00;8.85;;;6.60;99.90;;;;;;5005370;28;20075;-47
2022/12/21 05:17:25;;;;;;;74.57;10.68;;;6.60;99.90;;;;;;4997136;28;20515;-40
2022/12/21 05:19:51;;;;;;;24.70;7.38;;;6.60;99.90;;;;;;4995883;28;20491;-44
2022/12/21 05:22:17;;;;;;;71.70;12.27;;;6.60;99.90;;;;;;5001799;28;20045;-44
2022/12/21 05:24:44;;;;;;;90.55;15.05;;;6.60;99.90;;;;;;4997290;28;20041;-45
2022/12/21 05:27:10;;;;;;;61.80;10.38;;;6.70;99.90;;;;;;5009356;28;20086;-48
2022/12/21 05:29:36;;;;;;;85.78;11.82;;;6.70;99.90;;;;;;4996541;28;20435;-42
2022/12/21 05:32:01;;;;;;;49.75;8.23;;;6.70;99.90;;;;;;5002578;28;20038;-46
2022/12/21 05:34:27;;;;;;;62.25;10.50;;;6.70;99.90;;;;;;4996592;28;20415;-45
2022/12/21 05:36:52;;;;;;;56.65;11.18;;;6.70;99.90;;;;;;4999641;28;20144;-44
2022/12/21 05:39:18;;;;;;;48.15;8.75;;;6.70;99.90;;;;;;5004022;28;20084;-39
2022/12/21 05:41:44;;;;;;;26.90;7.85;;;6.70;99.90;;;;;;4999692;28;20034;-45
2022/12/21 05:44:10;;;;;;;24.90;7.30;;;6.70;99.90;;;;;;5008174;28;20384;-48
2022/12/21 05:46:36;;;;;;;36.72;8.68;;;6.70;99.90;;;;;;5003980;28;20070;-43
2022/12/21 05:49:02;;;;;;;20.52;6.82;;;6.70;99.90;;;;;;5003534;28;20057;-42
2022/12/21 05:51:27;;;;;;;28.67;8.63;;;6.70;99.90;;;;;;4997901;28;20038;-43
2022/12/21 05:53:54;;;;;;;30.42;9.00;;;6.70;99.90;;;;;;5007487;28;20104;-42
2022/12/21 05:56:20;;;;;;;30.35;9.25;;;6.70;99.90;;;;;;4995754;28;20038;-45
2022/12/21 05:58:46;;;;;;;45.47;9.45;;;6.70;99.90;;;;;;4998313;28;20040;-48
2022/12/21 06:01:12;;;;;;;31.80;9.05;;;6.70;99.90;;;;;;4988333;28;20045;-44
2022/12/21 06:03:39;;;;;;;25.95;7.32;;;6.70;99.90;;;;;;4998511;28;20030;-45
2022/12/21 06:06:11;;;;;;;95.30;12.05;;;6.60;99.90;;;;;;4993898;28;20100;-41
2022/12/21 06:08:37;;;;;;;106.22;13.93;;;6.60;99.90;;;;;;5001479;28;20038;-47
2022/12/21 06:11:25;;;;;;;29.63;6.57;;;6.60;99.90;;;;;;5010474;28;20040;-44
2022/12/21 06:13:51;;;;;;;47.58;9.18;;;6.60;99.90;;;;;;5000553;28;20054;-40
2022/12/21 06:16:22;;;;;;;102.82;13.15;;;6.60;99.90;;;;;;4995804;28;20045;-44
2022/12/21 06:18:48;;;;;;;127.78;14.75;;;6.60;99.90;;;;;;5002026;28;20041;-43
2022/12/21 06:21:16;;;;;;;86.20;10.95;;;6.50;99.90;;;;;;4979755;28;20050;-45
2022/12/21 06:23:42;;;;;;;45.72;10.57;;;6.50;99.90;;;;;;4991675;28;20057;-45
2022/12/21 06:26:11;;;;;;;137.25;14.20;;;6.50;99.90;;;;;;5000206;28;20452;-44
2022/12/21 06:28:37;;;;;;;91.82;12.43;;;6.50;99.90;;;;;;4996523;28;20046;-47
2022/12/21 06:31:09;;;;;;;42.42;8.00;;;6.50;99.90;;;;;;4991781;28;20049;-41
2022/12/21 06:33:35;;;;;;;125.13;13.68;;;6.50;99.90;;;;;;4997355;28;20035;-42
2022/12/21 06:36:01;;;;;;;98.43;11.77;;;6.50;99.90;;;;;;4996027;28;20734;-42
2022/12/21 06:38:27;;;;;;;58.88;8.45;;;6.40;99.90;;;;;;4992470;28;20096;-40
2022/12/21 06:41:00;;;;;;;93.63;8.77;;;6.40;99.90;;;;;;4998691;28;20042;-45
2022/12/21 06:43:28;;;;;;;39.95;8.18;;;6.40;99.90;;;;;;4998244;28;20042;-44
2022/12/21 06:45:55;;;;;;;65.13;9.23;;;6.40;99.90;;;;;;5004293;28;20029;-43
2022/12/21 06:48:22;;;;;;;58.67;8.88;;;6.40;99.90;;;;;;4995689;28;20058;-45
2022/12/21 06:50:55;;;;;;;33.65;7.70;;;6.40;99.90;;;;;;4986645;28;20034;-42
2022/12/21 06:53:23;;;;;;;84.25;11.85;;;6.40;99.90;;;;;;4995793;28;20045;-45
2022/12/21 06:55:49;;;;;;;77.00;11.45;;;6.40;99.90;;;;;;4973853;28;20064;-40
2022/12/21 06:58:15;;;;;;;74.30;11.43;;;6.40;99.90;;;;;;5005948;28;20121;-44
2022/12/21 07:00:41;;;;;;;68.38;11.25;;;6.40;99.90;;;;;;4997981;28;20046;-45
2022/12/21 07:03:07;;;;;;;56.88;9.88;;;6.30;99.90;;;;;;4999691;28;20088;-44
2022/12/21 07:05:33;;;;;;;41.80;8.68;;;6.30;99.90;;;;;;4991780;28;20503;-44
2022/12/21 07:07:59;;;;;;;39.88;8.77;;;6.30;99.90;;;;;;4992711;28;20042;-44
2022/12/21 07:10:25;;;;;;;67.90;10.52;;;6.20;99.90;;;;;;4971706;28;20030;-44
2022/12/21 07:12:51;;;;;;;49.80;10.50;;;6.30;99.90;;;;;;5002775;28;20519;-43
2022/12/21 07:15:16;;;;;;;44.17;7.82;;;6.20;99.90;;;;;;4994844;28;20034;-45
2022/12/21 07:17:42;;;;;;;41.65;8.98;;;6.20;99.90;;;;;;5005013;28;20115;-43
2022/12/21 07:20:08;;;;;;;77.00;10.07;;;6.20;99.90;;;;;;4997717;28;20049;-53
2022/12/21 07:22:34;;;;;;;23.63;6.18;;;6.20;99.90;;;;;;5005282;28;20057;-46
2022/12/21 07:25:00;;;;;;;21.70;7.70;;;6.20;99.90;;;;;;5007793;28;20511;-46
2022/12/21 07:27:25;;;;;;;18.52;6.15;;;6.10;99.90;;;;;;5003058;28;20492;-45
2022/12/21 07:29:51;;;;;;;24.67;8.65;;;6.10;99.90;;;;;;5009513;28;20037;-45
2022/12/21 07:32:17;;;;;;;23.20;8.18;;;6.10;99.90;;;;;;4995095;28;20041;-47
2022/12/21 07:34:42;;;;;;;17.38;6.90;;;6.20;99.90;;;;;;5003857;28;20053;-44
2022/12/21 07:37:08;;;;;;;28.30;9.27;;;6.20;99.90;;;;;;4992392;28;20034;-44
2022/12/21 07:39:34;;;;;;;23.95;8.57;;;6.20;99.90;;;;;;4991841;28;20119;-45
2022/12/21 07:41:59;;;;;;;24.20;8.88;;;6.20;99.90;;;;;;4991043;28;20045;-45
2022/12/21 07:44:25;;;;;;;21.60;8.60;;;6.20;99.90;;;;;;4991306;28;20521;-39
2022/12/21 07:46:51;;;;;;;21.75;8.77;;;6.20;99.90;;;;;;4998600;28;20038;-45
2022/12/21 07:49:16;;;;;;;29.25;11.30;;;6.20;99.90;;;;;;4997382;28;20046;-44
2022/12/21 07:51:42;;;;;;;25.98;9.40;;;6.20;99.90;;;;;;4995260;28;20038;-44
2022/12/21 07:54:08;;;;;;;29.05;10.80;;;6.20;99.90;;;;;;4997455;28;20033;-43
2022/12/21 07:56:33;;;;;;;33.15;11.70;;;6.20;99.90;;;;;;4994227;28;20034;-40
2022/12/21 07:59:00;;;;;;;29.73;11.45;;;6.20;99.90;;;;;;4997533;28;20499;-44
2022/12/21 08:01:26;;;;;;;38.53;11.52;;;6.20;99.90;;;;;;4995113;28;20045;-43
2022/12/21 08:03:52;;;;;;;39.92;11.68;;;6.20;99.90;;;;;;4993830;28;20046;-40
2022/12/21 08:06:18;;;;;;;61.10;13.40;;;6.20;99.90;;;;;;5000479;28;20128;-45
2022/12/21 08:08:45;;;;;;;60.88;14.80;;;6.20;99.90;;;;;;4994414;28;20069;-40
2022/12/21 08:11:16;;;;;;;109.03;15.65;;;6.20;99.90;;;;;;4984582;28;20046;-40
2022/12/21 08:13:43;;;;;;;35.45;12.48;;;6.30;99.90;;;;;;4993364;28;20117;-43
2022/12/21 08:16:11;;;;;;;107.78;16.35;;;6.30;99.90;;;;;;4996963;28;20377;-47
2022/12/21 08:18:37;;;;;;;186.23;19.20;;;6.30;99.90;;;;;;4982734;28;20534;-46
2022/12/21 08:21:04;;;;;;;173.88;17.25;;;6.30;99.90;;;;;;4987775;28;20037;-45
2022/12/21 08:23:29;;;;;;;139.30;16.45;;;6.30;99.90;;;;;;4989107;28;20436;-44
2022/12/21 08:26:03;;;;;;;155.40;18.40;;;6.30;99.90;;;;;;4993651;28;20077;-42
2022/12/21 08:28:29;;;;;;;99.88;17.92;;;6.30;99.90;;;;;;4985480;28;20040;-45
2022/12/21 08:31:14;;;;;;;109.50;17.08;;;6.30;99.90;;;;;;4990629;28;20066;-43
2022/12/21 08:33:41;;;;;;;143.50;17.25;;;6.30;99.90;;;;;;4996000;28;20049;-46
2022/12/21 08:36:11;;;;;;;165.77;21.02;;;6.40;99.90;;;;;;4995788;28;20041;-46
2022/12/21 08:38:37;;;;;;;147.35;20.67;;;6.40;99.90;;;;;;4990653;28;20073;-43
2022/12/21 08:41:03;;;;;;;140.80;20.95;;;6.50;99.90;;;;;;5005290;28;20048;-43
2022/12/21 08:43:29;;;;;;;114.68;19.63;;;6.50;99.90;;;;;;4997511;28;20398;-46
2022/12/21 08:45:55;;;;;;;134.25;20.15;;;6.60;99.90;;;;;;4992299;28;20046;-44
2022/12/21 08:48:21;;;;;;;114.75;19.90;;;6.60;99.90;;;;;;4995034;28;20062;-41
2022/12/21 08:50:53;;;;;;;81.32;16.17;;;6.70;99.90;;;;;;4989872;28;20050;-45
2022/12/21 08:53:19;;;;;;;66.70;16.08;;;6.80;99.90;;;;;;4999449;28;20037;-43
2022/12/21 08:55:47;;;;;;;96.30;19.20;;;6.80;99.90;;;;;;4997982;28;20038;-42
2022/12/21 08:58:13;;;;;;;84.13;17.60;;;6.90;99.90;;;;;;4993421;28;20105;-44
2022/12/21 09:00:38;;;;;;;83.22;20.33;;;7.00;99.90;;;;;;4986900;28;20038;-44
2022/12/21 09:03:06;;;;;;;68.10;15.70;;;7.00;99.90;;;;;;4991927;28;20037;-47
2022/12/21 09:05:32;;;;;;;63.00;18.02;;;7.10;99.90;;;;;;5002523;28;20057;-44
2022/12/21 09:07:59;;;;;;;56.40;16.73;;;7.10;99.90;;;;;;5007360;28;20456;-42
2022/12/21 09:10:24;;;;;;;74.53;17.58;;;7.20;99.90;;;;;;4997757;28;20861;-47
2022/12/21 09:12:50;;;;;;;62.97;16.50;;;7.20;99.90;;;;;;4999303;28;20038;-40
2022/12/21 09:15:16;;;;;;;69.70;16.30;;;7.30;99.90;;;;;;5005558;28;20077;-41
2022/12/21 09:17:42;;;;;;;63.45;16.90;;;7.30;99.90;;;;;;4999718;28;20042;-44
2022/12/21 09:20:08;;;;;;;65.13;16.33;;;7.40;99.90;;;;;;4994890;28;20109;-47
2022/12/21 09:22:34;;;;;;;56.95;14.93;;;7.40;99.90;;;;;;4993072;28;20038;-43
2022/12/21 09:25:00;;;;;;;53.40;15.32;;;7.40;99.90;;;;;;4999427;28;20509;-47
2022/12/21 09:27:26;;;;;;;44.47;14.18;;;7.50;99.90;;;;;;4993068;28;20043;-42
2022/12/21 09:29:52;;;;;;;50.08;13.77;;;7.60;99.90;;;;;;4992765;28;20042;-42
2022/12/21 09:32:17;;;;;;;46.65;14.25;;;7.60;99.90;;;;;;4989972;28;20096;-43
2022/12/21 09:34:43;;;;;;;52.47;14.85;;;7.70;99.90;;;;;;4999030;28;20045;-44
2022/12/21 09:37:09;;;;;;;49.45;13.98;;;7.70;99.90;;;;;;5000730;28;20121;-43
2022/12/21 09:39:34;;;;;;;47.60;14.35;;;7.70;99.90;;;;;;4997679;28;20066;-43
2022/12/21 09:42:15;;;;;;;48.63;14.45;;;7.70;99.90;;;;;;5007637;28;20038;-48
2022/12/21 09:45:10;;;;;;;59.50;14.55;;;7.70;99.90;;;;;;4999016;28;20064;-43
2022/12/21 09:48:08;;;;;;;51.47;14.95;;;7.80;99.90;;;;;;4997708;28;20089;-44
2022/12/21 09:50:45;;;;;;;53.53;14.85;;;7.80;99.90;;;;;;4956732;28;20054;-42
2022/12/21 09:53:19;;;;;;;49.08;14.35;;;7.80;99.90;;;;;;5000538;28;20096;-40
2022/12/21 09:55:53;;;;;;;44.33;14.45;;;7.90;99.90;;;;;;4991439;28;20038;-44
2022/12/21 09:58:28;;;;;;;46.25;13.75;;;7.90;99.90;;;;;;4991247;28;20061;-43
2022/12/21 10:01:26;;;;;;;41.45;14.65;;;7.90;99.90;;;;;;4993660;28;20450;-46
2022/12/21 10:04:10;;;;;;;52.20;14.32;;;7.90;99.90;;;;;;4991129;28;20077;-44
2022/12/21 10:07:00;;;;;;;39.72;11.95;;;7.90;99.90;;;;;;4993405;28;20508;-44
2022/12/21 10:09:28;;;;;;;42.25;13.77;;;7.90;99.90;;;;;;4993703;28;20038;-44
2022/12/21 10:11:54;;;;;;;41.70;12.88;;;8.00;99.90;;;;;;4989763;28;20065;-45
2022/12/21 10:14:33;;;;;;;36.75;13.43;;;8.00;99.90;;;;;;4997830;28;20042;-45
2022/12/21 10:17:04;;;;;;;35.00;12.02;;;8.00;99.90;;;;;;4981636;28;20070;-45
2022/12/21 10:20:16;;;;;;;43.08;13.95;;;8.10;99.90;;;;;;5006218;28;20044;-42
2022/12/21 10:22:47;;;;;;;41.83;12.98;;;8.10;99.90;;;;;;4990892;28;20042;-44
2022/12/21 10:25:24;;;;;;;38.45;12.82;;;8.10;99.90;;;;;;5000154;28;20042;-46
2022/12/21 10:28:27;;;;;;;37.42;13.20;;;8.20;99.90;;;;;;4996269;28;20130;-44
2022/12/21 10:30:55;;;;;;;;;;;8.20;99.90;;;;;;4999679;28;20129;-43
2022/12/21 10:33:23;;;;;;;38.08;12.73;;;8.30;99.90;;;;;;4999321;28;20387;-46
2022/12/21 10:35:53;;;;;;;33.65;11.70;;;8.30;99.90;;;;;;5004127;28;20042;-42
2022/12/21 10:38:19;;;;;;;33.88;13.35;;;8.40;99.90;;;;;;4990753;28;20142;-40
2022/12/21 10:40:52;;;;;;;36.08;14.18;;;8.50;99.90;;;;;;4998043;28;20072;-43
2022/12/21 10:43:19;;;;;;;34.38;12.65;;;8.70;99.90;;;;;;5001419;28;20077;-45
2022/12/21 10:45:45;;;;;;;31.90;13.52;;;9.00;99.90;;;;;;5007800;28;20148;-43
2022/12/21 10:48:11;;;;;;;35.35;13.07;;;9.20;99.90;;;;;;4994931;28;20106;-43
2022/12/21 10:50:42;;;;;;;37.13;14.30;;;9.50;99.90;;;;;;4992701;28;20145;-44
2022/12/21 10:53:18;;;;;;;33.05;13.52;;;9.60;99.90;;;;;;4996103;28;20038;-48
2022/12/21 10:55:44;;;;;;;37.28;13.27;;;9.70;99.90;;;;;;4998756;28;20420;-45
2022/12/21 10:58:13;;;;;;;36.88;13.10;;;9.80;99.90;;;;;;4999275;28;20395;-42
2022/12/21 11:00:50;;;;;;;32.35;12.98;;;10.00;99.90;;;;;;4997491;28;20054;-42
2022/12/21 11:03:37;;;;;;;31.58;13.60;;;10.10;99.90;;;;;;4998067;28;20823;-44
2022/12/21 11:06:18;;;;;;;32.33;12.45;;;10.20;99.90;;;;;;4999740;28;20562;-45
2022/12/21 11:08:46;;;;;;;30.58;13.20;;;10.30;99.90;;;;;;4989290;28;20038;-44
2022/12/21 11:11:36;;;;;;;29.42;12.63;;;10.40;99.90;;;;;;4998866;28;20043;-44
2022/12/21 11:14:14;;;;;;;27.00;12.50;;;10.50;99.90;;;;;;4987893;28;20041;-43
2022/12/21 11:16:41;;;;;;;28.45;11.07;;;10.70;99.90;;;;;;4999292;28;20041;-47
2022/12/21 11:19:13;;;;;;;25.98;10.48;;;10.80;99.90;;;;;;5000417;28;20042;-45
2022/12/21 11:21:42;;;;;;;30.25;11.40;;;11.00;99.90;;;;;;4994722;28;20041;-43
2022/12/21 11:24:16;;;;;;;28.30;11.70;;;11.00;99.90;;;;;;4993311;28;20045;-44
2022/12/21 11:26:45;;;;;;;27.50;11.18;;;11.10;99.90;;;;;;4995275;28;20038;-47
2022/12/21 11:29:28;;;;;;;26.58;10.95;;;11.20;99.90;;;;;;4998272;28;20041;-44
2022/12/21 11:31:56;;;;;;;25.00;11.23;;;11.10;99.90;;;;;;4983256;28;20046;-46
2022/12/21 11:34:48;;;;;;;29.55;11.20;;;11.20;99.90;;;;;;4995413;28;20447;-45
2022/12/21 11:37:23;;;;;;;21.40;10.13;;;11.40;99.90;;;;;;4995107;28;20046;-43
2022/12/21 11:39:49;;;;;;;20.40;9.32;;;11.50;99.90;;;;;;4995054;28;20042;-43
2022/12/21 11:42:19;;;;;;;22.60;8.75;;;11.60;99.90;;;;;;4997022;28;20034;-44
2022/12/21 11:44:46;;;;;;;24.58;9.80;;;11.70;99.90;;;;;;4997953;28;20101;-43
2022/12/21 11:47:33;;;;;;;21.95;8.73;;;11.80;99.90;;;;;;5000852;28;20037;-43
2022/12/21 11:50:04;;;;;;;20.58;8.23;;;11.80;99.90;;;;;;4995477;28;20060;-44
2022/12/21 11:52:55;;;;;;;19.15;8.95;;;11.80;99.90;;;;;;4995753;28;20412;-41
2022/12/21 11:55:39;;;;;;;24.90;9.77;;;11.60;99.90;;;;;;4993512;28;20060;-43
2022/12/21 11:58:30;;;;;;;21.15;9.52;;;11.50;99.90;;;;;;4996238;28;20045;-44
2022/12/21 12:01:14;;;;;;;21.88;9.45;;;11.20;99.90;;;;;;4996306;28;20041;-46
2022/12/21 12:03:48;;;;;;;23.63;9.90;;;10.80;99.90;;;;;;4997602;28;20053;-42
2022/12/21 12:06:41;;;;;;;23.08;9.32;;;10.40;99.90;;;;;;4999770;28;20495;-44
2022/12/21 12:09:36;;;;;;;21.05;7.93;;;10.40;99.90;;;;;;4996904;28;20087;-43
2022/12/21 12:12:39;;;;;;;17.10;8.02;;;10.40;99.90;;;;;;4971763;28;20050;-43
2022/12/21 12:15:14;;;;;;;17.48;9.35;;;10.40;99.90;;;;;;4991192;28;20458;-43
2022/12/21 12:18:10;;;;;;;17.65;6.47;;;10.40;99.90;;;;;;4996300;28;20483;-46
2022/12/21 12:21:13;;;;;;;16.77;7.95;;;10.40;99.90;;;;;;5000351;28;20049;-42
2022/12/21 12:24:16;;;;;;;18.33;9.20;;;10.30;99.90;;;;;;4994682;28;20488;-44
2022/12/21 12:27:03;;;;;;;19.13;9.23;;;10.00;99.90;;;;;;5001589;28;20408;-43
2022/12/21 12:30:02;;;;;;;22.88;9.48;;;9.80;99.90;;;;;;4991144;28;20038;-44
2022/12/21 12:32:45;;;;;;;20.63;8.98;;;9.80;99.90;;;;;;4998111;28;20038;-41
2022/12/21 12:35:22;;;;;;;21.00;9.50;;;9.80;99.90;;;;;;4999007;28;20046;-44
2022/12/21 12:38:09;;;;;;;18.83;9.52;;;10.00;99.90;;;;;;4993844;28;20415;-42
2022/12/21 12:41:00;;;;;;;23.70;10.23;;;10.00;99.90;;;;;;4996048;28;20045;-43
2022/12/21 12:43:52;;;;;;;22.50;9.75;;;10.00;99.90;;;;;;4996916;28;20050;-40
2022/12/21 12:46:28;;;;;;;20.17;9.95;;;9.90;99.90;;;;;;4984900;28;20050;-46
2022/12/21 12:49:14;;;;;;;19.48;9.82;;;9.90;99.90;;;;;;4977154;28;20046;-43
2022/12/21 12:51:53;;;;;;;19.23;9.45;;;9.80;99.90;;;;;;4988505;28;20659;-41
2022/12/21 12:54:36;;;;;;;21.00;11.57;;;9.80;99.90;;;;;;4996169;28;20089;-43
2022/12/21 12:57:11;;;;;;;20.63;9.98;;;9.70;99.90;;;;;;4995151;28;20058;-40
2022/12/21 12:59:47;;;;;;;19.15;10.23;;;9.50;99.90;;;;;;4987839;28;20038;-43
2022/12/21 13:02:21;;;;;;;20.95;11.15;;;9.30;99.90;;;;;;4991094;28;20096;-44
2022/12/21 13:04:50;;;;;;;27.20;11.73;;;9.20;99.90;;;;;;4993126;28;20042;-41
2022/12/21 13:07:36;;;;;;;22.38;12.68;;;9.20;99.90;;;;;;4997033;28;20043;-42